»·PEaware :: N6342X KPAE-KBLI

N6342X :: KPAE-KBLI

FLIGHT INFORMATION

Flight Status: Arrived
Operator: Privately registered:
United States
More flights under this callsign
Pilot: Yohannes T. (42741)
Aircraft: CESSNA 172 SKYHAWK
(C172)
More flights by this aircraft type
Origin: KPAE Paine Field/Snohomish Co.
United States
Destination: KBLI Bellingham Intl
United States
More flights between these airports :: More routes between these airports
Route: PAE V287 CVV V165 HUH SECOG
File this flight plan on PilotEdge
Remarks:
Altitude:
(Current/Filed)
6,000ft
Speed:
(Current/Filed)
110kts
Departed: 15-Aug-23 02:58 PM
Arrived: 15-Aug-23 03:52 PM
Distance/Time
Traveled:
54nm/0:54
Distance/Time
To Go:
Arrived

Flight Plot

Page will automatically refresh every two minutes.

Flight plan parsing failed; only flown route is shown


Map Options




Map Legend


Flown Route
Filed Route
Departure Airport
Arrival Airport
Navaid (VOR, NDB)
Fix

Horizontal Profiles

Position Reports

Time Latitude Longitude Heading Altitude Ground
Speed
15-Aug-23 14:36 47.905692 -122.277431 308 597ft 0kts
15-Aug-23 14:37 47.905692 -122.277431 308 597ft 0kts
15-Aug-23 14:38 47.905692 -122.277431 308 597ft 0kts
15-Aug-23 14:39 47.905692 -122.277431 308 597ft 0kts
15-Aug-23 14:40 47.905692 -122.277431 308 597ft 0kts
15-Aug-23 14:41 47.905692 -122.277431 308 597ft 0kts
15-Aug-23 14:42 47.905692 -122.277431 308 597ft 0kts
15-Aug-23 14:43 47.905692 -122.277431 308 597ft 0kts
15-Aug-23 14:44 47.905692 -122.277431 308 597ft 0kts
15-Aug-23 14:45 47.905692 -122.277431 308 597ft 0kts
15-Aug-23 14:46 47.905692 -122.277431 308 597ft 0kts
15-Aug-23 14:47 47.905692 -122.277431 308 597ft 0kts
15-Aug-23 14:48 47.905704 -122.277542 256 596ft 0kts
15-Aug-23 14:49 47.905734 -122.278031 319 596ft 11kts
15-Aug-23 14:50 47.910871 -122.283453 358 575ft 26kts
15-Aug-23 14:51 47.919900 -122.283956 356 568ft 32kts
15-Aug-23 14:52 47.920893 -122.283952 2 567ft 0kts
15-Aug-23 14:53 47.920893 -122.283952 2 567ft 0kts
15-Aug-23 14:54 47.920893 -122.283952 2 567ft 0kts
15-Aug-23 14:55 47.921325 -122.284248 316 568ft 0kts
15-Aug-23 14:56 47.921415 -122.284405 303 570ft 8kts
15-Aug-23 14:57 47.909018 -122.285754 185 715ft 94kts
15-Aug-23 14:58 47.881215 -122.287090 180 1503ft 101kts
15-Aug-23 14:59 47.852616 -122.287428 211 2250ft 107kts
15-Aug-23 15:00 47.864582 -122.313667 336 3032ft 108kts
15-Aug-23 15:01 47.891617 -122.330525 336 3805ft 107kts
15-Aug-23 15:02 47.920748 -122.349118 339 3888ft 114kts
15-Aug-23 15:03 47.946741 -122.373474 320 4020ft 111kts
15-Aug-23 15:04 47.970501 -122.401979 320 4571ft 105kts
15-Aug-23 15:05 47.994273 -122.428756 322 5096ft 106kts
15-Aug-23 15:06 48.017022 -122.456480 322 5568ft 107kts
15-Aug-23 15:07 48.041860 -122.483587 322 5896ft 114kts
15-Aug-23 15:08 48.067743 -122.512679 322 5885ft 116kts
15-Aug-23 15:09 48.092868 -122.543823 321 5932ft 117kts
15-Aug-23 15:10 48.118741 -122.573405 326 5973ft 116kts
15-Aug-23 15:11 48.144691 -122.603212 323 6031ft 118kts
15-Aug-23 15:12 48.169650 -122.634954 320 5989ft 115kts
15-Aug-23 15:13 48.195401 -122.664126 320 5969ft 115kts
15-Aug-23 15:14 48.220447 -122.694636 322 5954ft 116kts
15-Aug-23 15:15 48.246581 -122.722690 350 5868ft 118kts
15-Aug-23 15:16 48.278090 -122.715427 11 5895ft 112kts
15-Aug-23 15:17 48.309169 -122.709071 9 6059ft 111kts
15-Aug-23 15:18 48.340254 -122.702353 10 5903ft 111kts
15-Aug-23 15:19 48.371306 -122.694566 8 6003ft 113kts
15-Aug-23 15:20 48.402531 -122.685817 7 6021ft 113kts
15-Aug-23 15:21 48.433997 -122.679122 9 6021ft 114kts
15-Aug-23 15:22 48.465752 -122.671920 9 6042ft 115kts
15-Aug-23 15:23 48.497425 -122.663573 9 6102ft 114kts
15-Aug-23 15:24 48.527902 -122.655933 8 5982ft 119kts
15-Aug-23 15:25 48.560916 -122.648052 8 5959ft 120kts
15-Aug-23 15:26 48.593365 -122.639964 9 5947ft 116kts
15-Aug-23 15:27 48.625793 -122.631349 9 5766ft 127kts
15-Aug-23 15:28 48.660475 -122.622201 9 5167ft 125kts
15-Aug-23 15:29 48.692696 -122.614194 9 4579ft 111kts
15-Aug-23 15:30 48.722120 -122.605258 5 3980ft 105kts
15-Aug-23 15:31 48.750574 -122.599657 8 3531ft 102kts
15-Aug-23 15:32 48.778456 -122.593610 5 3375ft 101kts
15-Aug-23 15:33 48.806096 -122.585888 8 3371ft 102kts
15-Aug-23 15:34 48.833891 -122.578426 14 3366ft 105kts
15-Aug-23 15:35 48.861543 -122.569625 6 3315ft 106kts
15-Aug-23 15:36 48.890878 -122.565078 10 3359ft 106kts
15-Aug-23 15:37 48.919934 -122.556773 6 3418ft 109kts
15-Aug-23 15:38 48.949042 -122.548512 5 3432ft 106kts
15-Aug-23 15:39 48.977935 -122.540844 9 3318ft 102kts
15-Aug-23 15:40 49.006433 -122.535208 6 3245ft 102kts
15-Aug-23 15:41 49.033190 -122.539211 302 3030ft 99kts
15-Aug-23 15:42 49.016067 -122.550043 146 2558ft 102kts
15-Aug-23 15:43 48.989997 -122.538157 187 2209ft 98kts
15-Aug-23 15:44 48.962473 -122.538969 177 2079ft 96kts
15-Aug-23 15:45 48.935094 -122.537996 179 2041ft 100kts
15-Aug-23 15:46 48.907845 -122.537703 185 2031ft 97kts
15-Aug-23 15:47 48.880762 -122.538101 181 1777ft 100kts
15-Aug-23 15:48 48.853609 -122.538049 179 1294ft 95kts
15-Aug-23 15:49 48.826733 -122.537815 178 688ft 94kts
15-Aug-23 15:50 48.803042 -122.537495 182 241ft 84kts
15-Aug-23 15:51 48.793406 -122.536078 37 170ft 0kts

Navigation Log

Ident Type
Flight plan parsing failed, navigation log unavailable